sensor_id;sensor_type;location;lat;lon;timestamp;pressure;altitude;pressure_sealevel;temperature;humidity
28927;BME280;16038;47.692;9.400;2023-04-30T00:01:45;96711.25;;;11.23;100.00
28927;BME280;16038;47.692;9.400;2023-04-30T00:04:10;96713.03;;;11.12;100.00
28927;BME280;16038;47.692;9.400;2023-04-30T00:06:36;96717.34;;;11.13;100.00
28927;BME280;16038;47.692;9.400;2023-04-30T00:09:01;96728.22;;;11.05;100.00
28927;BME280;16038;47.692;9.400;2023-04-30T00:11:27;96735.91;;;10.96;100.00
28927;BME280;16038;47.692;9.400;2023-04-30T00:13:52;96734.13;;;10.81;100.00
28927;BME280;16038;47.692;9.400;2023-04-30T00:16:17;96733.00;;;10.85;100.00
28927;BME280;16038;47.692;9.400;2023-04-30T00:18:43;96733.53;;;10.95;100.00
28927;BME280;16038;47.692;9.400;2023-04-30T00:21:08;96730.75;;;11.18;100.00
28927;BME280;16038;47.692;9.400;2023-04-30T00:23:33;96726.28;;;11.06;100.00
28927;BME280;16038;47.692;9.400;2023-04-30T00:25:59;96721.41;;;10.96;100.00
28927;BME280;16038;47.692;9.400;2023-04-30T00:28:24;96716.66;;;10.93;100.00
28927;BME280;16038;47.692;9.400;2023-04-30T00:30:49;96719.28;;;10.85;100.00
28927;BME280;16038;47.692;9.400;2023-04-30T00:33:15;96722.84;;;10.86;100.00
28927;BME280;16038;47.692;9.400;2023-04-30T00:35:40;96711.78;;;10.79;100.00
28927;BME280;16038;47.692;9.400;2023-04-30T00:38:06;96722.63;;;10.71;100.00
28927;BME280;16038;47.692;9.400;2023-04-30T00:40:33;96713.13;;;10.65;100.00
28927;BME280;16038;47.692;9.400;2023-04-30T00:42:58;96716.22;;;10.64;100.00
28927;BME280;16038;47.692;9.400;2023-04-30T00:45:23;96721.28;;;10.62;100.00
28927;BME280;16038;47.692;9.400;2023-04-30T00:47:48;96709.91;;;10.60;100.00
28927;BME280;16038;47.692;9.400;2023-04-30T00:50:14;96709.53;;;10.61;100.00
28927;BME280;16038;47.692;9.400;2023-04-30T00:52:40;96702.75;;;10.55;100.00
28927;BME280;16038;47.692;9.400;2023-04-30T00:55:06;96697.28;;;10.55;100.00
28927;BME280;16038;47.692;9.400;2023-04-30T00:57:31;96698.88;;;10.56;100.00
28927;BME280;16038;47.692;9.400;2023-04-30T00:59:58;96702.75;;;10.51;100.00
28927;BME280;16038;47.692;9.400;2023-04-30T01:02:23;96692.50;;;10.48;100.00
28927;BME280;16038;47.692;9.400;2023-04-30T01:04:49;96693.94;;;10.42;100.00
28927;BME280;16038;47.692;9.400;2023-04-30T01:07:14;96700.38;;;10.50;100.00
28927;BME280;16038;47.692;9.400;2023-04-30T01:09:40;96689.72;;;10.45;100.00
28927;BME280;16038;47.692;9.400;2023-04-30T01:12:12;96696.56;;;10.35;100.00
28927;BME280;16038;47.692;9.400;2023-04-30T01:14:52;96691.75;;;10.28;100.00
28927;BME280;16038;47.692;9.400;2023-04-30T01:17:29;96688.19;;;10.28;100.00
28927;BME280;16038;47.692;9.400;2023-04-30T01:19:56;96689.25;;;10.20;100.00
28927;BME280;16038;47.692;9.400;2023-04-30T01:30:15;96689.06;;;10.09;100.00
28927;BME280;16038;47.692;9.400;2023-04-30T01:32:42;96686.97;;;10.02;100.00
28927;BME280;16038;47.692;9.400;2023-04-30T01:35:07;96695.97;;;10.03;100.00
28927;BME280;16038;47.692;9.400;2023-04-30T01:37:52;96692.38;;;9.99;100.00
28927;BME280;16038;47.692;9.400;2023-04-30T01:45:36;96694.13;;;9.87;100.00
28927;BME280;16038;47.692;9.400;2023-04-30T01:48:22;96696.44;;;9.85;100.00
28927;BME280;16038;47.692;9.400;2023-04-30T01:50:54;96694.78;;;9.81;100.00
28927;BME280;16038;47.692;9.400;2023-04-30T01:53:23;96693.72;;;9.85;100.00
28927;BME280;16038;47.692;9.400;2023-04-30T01:55:50;96691.47;;;9.91;100.00
28927;BME280;16038;47.692;9.400;2023-04-30T01:58:16;96706.09;;;9.79;100.00
28927;BME280;16038;47.692;9.400;2023-04-30T02:00:42;96696.59;;;9.73;100.00
28927;BME280;16038;47.692;9.400;2023-04-30T02:03:07;96696.25;;;9.74;100.00
28927;BME280;16038;47.692;9.400;2023-04-30T02:05:33;96704.31;;;9.67;100.00
28927;BME280;16038;47.692;9.400;2023-04-30T02:07:58;96694.09;;;9.64;100.00
28927;BME280;16038;47.692;9.400;2023-04-30T02:10:24;96694.78;;;9.61;100.00
28927;BME280;16038;47.692;9.400;2023-04-30T02:12:50;96701.44;;;9.60;100.00
28927;BME280;16038;47.692;9.400;2023-04-30T02:15:15;96696.66;;;9.57;100.00
28927;BME280;16038;47.692;9.400;2023-04-30T02:17:41;96696.66;;;9.57;100.00
28927;BME280;16038;47.692;9.400;2023-04-30T02:20:06;96706.81;;;9.56;100.00
28927;BME280;16038;47.692;9.400;2023-04-30T02:22:32;96698.06;;;9.47;100.00
28927;BME280;16038;47.692;9.400;2023-04-30T02:24:57;96696.44;;;9.46;100.00
28927;BME280;16038;47.692;9.400;2023-04-30T02:27:23;96693.66;;;9.43;100.00
28927;BME280;16038;47.692;9.400;2023-04-30T02:29:50;96699.75;;;9.36;100.00
28927;BME280;16038;47.692;9.400;2023-04-30T02:32:15;96703.22;;;9.33;100.00
28927;BME280;16038;47.692;9.400;2023-04-30T02:34:40;96684.50;;;9.35;100.00
28927;BME280;16038;47.692;9.400;2023-04-30T02:37:06;96705.66;;;9.38;100.00
28927;BME280;16038;47.692;9.400;2023-04-30T02:39:31;96693.22;;;9.41;100.00
28927;BME280;16038;47.692;9.400;2023-04-30T02:41:57;96697.00;;;9.36;100.00
28927;BME280;16038;47.692;9.400;2023-04-30T02:44:22;96697.81;;;9.36;100.00
28927;BME280;16038;47.692;9.400;2023-04-30T02:46:48;96689.63;;;9.36;100.00
28927;BME280;16038;47.692;9.400;2023-04-30T02:49:13;96690.41;;;9.37;100.00
28927;BME280;16038;47.692;9.400;2023-04-30T02:51:38;96692.28;;;9.33;100.00
28927;BME280;16038;47.692;9.400;2023-04-30T02:54:04;96690.25;;;9.30;100.00
28927;BME280;16038;47.692;9.400;2023-04-30T02:56:29;96683.19;;;9.29;100.00
28927;BME280;16038;47.692;9.400;2023-04-30T02:58:54;96693.44;;;9.32;100.00
28927;BME280;16038;47.692;9.400;2023-04-30T03:01:20;96689.91;;;9.31;100.00
28927;BME280;16038;47.692;9.400;2023-04-30T03:03:45;96685.16;;;9.28;100.00
28927;BME280;16038;47.692;9.400;2023-04-30T03:06:10;96691.13;;;9.34;100.00
28927;BME280;16038;47.692;9.400;2023-04-30T03:08:36;96686.00;;;9.32;100.00
28927;BME280;16038;47.692;9.400;2023-04-30T03:11:01;96691.13;;;9.34;100.00
28927;BME280;16038;47.692;9.400;2023-04-30T03:13:26;96687.97;;;9.32;100.00
28927;BME280;16038;47.692;9.400;2023-04-30T03:16:01;96691.47;;;9.32;100.00
28927;BME280;16038;47.692;9.400;2023-04-30T03:18:28;96686.00;;;9.32;100.00
28927;BME280;16038;47.692;9.400;2023-04-30T03:20:54;96681.28;;;9.29;100.00
28927;BME280;16038;47.692;9.400;2023-04-30T03:23:21;96687.09;;;9.28;100.00
28927;BME280;16038;47.692;9.400;2023-04-30T03:25:47;96685.84;;;9.25;100.00
28927;BME280;16038;47.692;9.400;2023-04-30T03:28:12;96683.56;;;9.27;100.00
28927;BME280;16038;47.692;9.400;2023-04-30T03:30:37;96676.94;;;9.28;100.00
28927;BME280;16038;47.692;9.400;2023-04-30T03:33:03;96676.59;;;9.30;100.00
28927;BME280;16038;47.692;9.400;2023-04-30T03:35:30;96684.78;;;9.30;100.00
28927;BME280;16038;47.692;9.400;2023-04-30T03:37:56;96685.56;;;9.30;100.00
28927;BME280;16038;47.692;9.400;2023-04-30T03:40:21;96672.06;;;9.37;100.00
28927;BME280;16038;47.692;9.400;2023-04-30T03:42:46;96673.59;;;9.35;100.00
28927;BME280;16038;47.692;9.400;2023-04-30T03:45:12;96680.97;;;9.34;100.00
28927;BME280;16038;47.692;9.400;2023-04-30T03:47:37;96668.13;;;9.35;100.00
28927;BME280;16038;47.692;9.400;2023-04-30T03:50:02;96675.97;;;9.36;100.00
28927;BME280;16038;47.692;9.400;2023-04-30T03:52:28;96668.91;;;9.35;100.00
28927;BME280;16038;47.692;9.400;2023-04-30T03:54:53;96674.78;;;9.37;100.00
28927;BME280;16038;47.692;9.400;2023-04-30T03:57:19;96671.78;;;9.43;100.00
28927;BME280;16038;47.692;9.400;2023-04-30T03:59:44;96673.31;;;9.40;100.00
28927;BME280;16038;47.692;9.400;2023-04-30T04:02:10;96668.53;;;9.37;100.00
28927;BME280;16038;47.692;9.400;2023-04-30T04:04:35;96672.06;;;9.37;100.00
28927;BME280;16038;47.692;9.400;2023-04-30T04:07:00;96666.44;;;9.30;100.00
28927;BME280;16038;47.692;9.400;2023-04-30T04:09:27;96662.94;;;9.30;100.00
28927;BME280;16038;47.692;9.400;2023-04-30T04:11:52;96660.63;;;9.32;100.00
28927;BME280;16038;47.692;9.400;2023-04-30T04:14:18;96664.50;;;9.31;100.00
28927;BME280;16038;47.692;9.400;2023-04-30T04:16:43;96675.44;;;9.31;100.00
28927;BME280;16038;47.692;9.400;2023-04-30T04:19:09;96663.06;;;9.37;100.00
28927;BME280;16038;47.692;9.400;2023-04-30T04:21:36;96672.41;;;9.36;100.00
28927;BME280;16038;47.692;9.400;2023-04-30T04:24:02;96676.75;;;9.37;100.00
28927;BME280;16038;47.692;9.400;2023-04-30T04:26:33;96669.75;;;9.40;100.00
28927;BME280;16038;47.692;9.400;2023-04-30T04:28:59;96677.16;;;9.39;100.00
28927;BME280;16038;47.692;9.400;2023-04-30T04:31:24;96677.16;;;9.39;100.00
28927;BME280;16038;47.692;9.400;2023-04-30T04:33:51;96677.16;;;9.39;100.00
28927;BME280;16038;47.692;9.400;2023-04-30T04:36:26;96683.84;;;9.42;100.00
28927;BME280;16038;47.692;9.400;2023-04-30T04:38:56;96674.88;;;9.41;100.00
28927;BME280;16038;47.692;9.400;2023-04-30T04:41:22;96686.59;;;9.42;100.00
28927;BME280;16038;47.692;9.400;2023-04-30T04:43:47;96692.44;;;9.40;100.00
28927;BME280;16038;47.692;9.400;2023-04-30T04:46:12;96686.16;;;9.40;100.00
28927;BME280;16038;47.692;9.400;2023-04-30T04:48:40;96683.13;;;9.45;100.00
28927;BME280;16038;47.692;9.400;2023-04-30T04:51:06;96688.97;;;9.43;100.00
28927;BME280;16038;47.692;9.400;2023-04-30T04:53:31;96691.28;;;9.41;100.00
28927;BME280;16038;47.692;9.400;2023-04-30T04:55:56;96692.28;;;9.33;100.00
28927;BME280;16038;47.692;9.400;2023-04-30T04:58:21;96684.94;;;9.37;100.00
28927;BME280;16038;47.692;9.400;2023-04-30T05:00:47;96693.44;;;9.32;100.00
28927;BME280;16038;47.692;9.400;2023-04-30T05:03:12;96676.66;;;9.33;100.00
28927;BME280;16038;47.692;9.400;2023-04-30T05:05:38;96679.47;;;9.37;100.00
28927;BME280;16038;47.692;9.400;2023-04-30T05:08:03;96678.91;;;9.28;100.00
28927;BME280;16038;47.692;9.400;2023-04-30T05:10:29;96685.94;;;9.29;100.00
28927;BME280;16038;47.692;9.400;2023-04-30T05:12:54;96684.78;;;9.30;100.00
28927;BME280;16038;47.692;9.400;2023-04-30T05:15:19;96684.78;;;9.30;100.00
28927;BME280;16038;47.692;9.400;2023-04-30T05:17:44;96690.63;;;9.28;100.00
28927;BME280;16038;47.692;9.400;2023-04-30T05:20:11;96699.25;;;9.30;100.00
28927;BME280;16038;47.692;9.400;2023-04-30T05:22:36;96690.63;;;9.28;100.00
28927;BME280;16038;47.692;9.400;2023-04-30T05:25:02;96672.25;;;9.29;100.00
28927;BME280;16038;47.692;9.400;2023-04-30T05:27:27;96687.16;;;9.31;100.00
28927;BME280;16038;47.692;9.400;2023-04-30T05:29:52;96662.16;;;9.29;100.00
28927;BME280;16038;47.692;9.400;2023-04-30T05:32:18;96696.50;;;9.30;100.00
28927;BME280;16038;47.692;9.400;2023-04-30T05:34:43;96693.06;;;9.33;100.00
28927;BME280;16038;47.692;9.400;2023-04-30T05:37:08;96693.44;;;9.32;100.00
28927;BME280;16038;47.692;9.400;2023-04-30T05:39:34;96688.38;;;9.34;100.00
28927;BME280;16038;47.692;9.400;2023-04-30T05:41:59;96696.94;;;9.32;100.00
28927;BME280;16038;47.692;9.400;2023-04-30T05:44:26;96694.72;;;9.38;100.00
28927;BME280;16038;47.692;9.400;2023-04-30T05:46:54;96689.97;;;9.35;100.00
28927;BME280;16038;47.692;9.400;2023-04-30T05:49:19;96699.41;;;9.37;100.00
28927;BME280;16038;47.692;9.400;2023-04-30T05:51:45;96698.59;;;9.37;100.00
28927;BME280;16038;47.692;9.400;2023-04-30T05:54:10;96684.31;;;9.44;100.00
28927;BME280;16038;47.692;9.400;2023-04-30T05:56:35;96687.41;;;9.42;100.00
28927;BME280;16038;47.692;9.400;2023-04-30T05:59:00;96682.56;;;9.35;100.00
28927;BME280;16038;47.692;9.400;2023-04-30T06:01:26;96695.44;;;9.35;100.00
28927;BME280;16038;47.692;9.400;2023-04-30T06:03:53;96683.50;;;9.43;100.00
28927;BME280;16038;47.692;9.400;2023-04-30T06:06:18;96701.06;;;9.42;100.00
28927;BME280;16038;47.692;9.400;2023-04-30T06:08:43;96687.03;;;9.44;100.00
28927;BME280;16038;47.692;9.400;2023-04-30T06:11:10;96685.53;;;9.46;100.00
28927;BME280;16038;47.692;9.400;2023-04-30T06:13:35;96683.72;;;9.54;100.00
28927;BME280;16038;47.692;9.400;2023-04-30T06:16:01;96682.84;;;9.50;100.00
28927;BME280;16038;47.692;9.400;2023-04-30T06:18:26;96679.47;;;9.56;100.00
28927;BME280;16038;47.692;9.400;2023-04-30T06:20:51;96669.63;;;9.52;100.00
28927;BME280;16038;47.692;9.400;2023-04-30T06:23:17;96679.19;;;9.62;100.00
28927;BME280;16038;47.692;9.400;2023-04-30T06:25:42;96687.41;;;9.62;100.00
28927;BME280;16038;47.692;9.400;2023-04-30T06:28:07;96681.53;;;9.63;100.00
28927;BME280;16038;47.692;9.400;2023-04-30T06:30:34;96690.69;;;9.71;100.00
28927;BME280;16038;47.692;9.400;2023-04-30T06:32:59;96688.88;;;9.79;100.00
28927;BME280;16038;47.692;9.400;2023-04-30T06:35:25;96697.44;;;9.97;100.00
28927;BME280;16038;47.692;9.400;2023-04-30T06:37:50;96685.59;;;10.12;100.00
28927;BME280;16038;47.692;9.400;2023-04-30T06:40:15;96686.88;;;10.18;100.00
28927;BME280;16038;47.692;9.400;2023-04-30T06:42:40;96689.25;;;10.20;100.00
28927;BME280;16038;47.692;9.400;2023-04-30T06:45:06;96690.75;;;10.17;100.00
28927;BME280;16038;47.692;9.400;2023-04-30T06:47:31;96689.44;;;10.30;100.00
28927;BME280;16038;47.692;9.400;2023-04-30T06:50:02;96696.97;;;10.33;100.00
28927;BME280;16038;47.692;9.400;2023-04-30T06:52:28;96675.38;;;10.55;100.00
28927;BME280;16038;47.692;9.400;2023-04-30T06:54:54;96687.63;;;10.61;100.00
28927;BME280;16038;47.692;9.400;2023-04-30T06:57:19;96693.31;;;10.76;100.00
28927;BME280;16038;47.692;9.400;2023-04-30T06:59:45;96684.94;;;11.48;100.00
28927;BME280;16038;47.692;9.400;2023-04-30T07:02:10;96691.38;;;11.29;100.00
28927;BME280;16038;47.692;9.400;2023-04-30T07:04:36;96692.91;;;11.00;100.00
28927;BME280;16038;47.692;9.400;2023-04-30T07:07:01;96691.06;;;11.69;100.00
28927;BME280;16038;47.692;9.400;2023-04-30T07:09:27;96692.06;;;12.21;100.00
28927;BME280;16038;47.692;9.400;2023-04-30T07:11:53;96682.22;;;11.86;100.00
28927;BME280;16038;47.692;9.400;2023-04-30T07:14:18;96687.78;;;12.27;100.00
28927;BME280;16038;47.692;9.400;2023-04-30T07:16:43;96679.66;;;12.38;100.00
28927;BME280;16038;47.692;9.400;2023-04-30T07:19:09;96675.94;;;13.27;98.75
28927;BME280;16038;47.692;9.400;2023-04-30T07:21:34;96680.69;;;12.71;99.21
28927;BME280;16038;47.692;9.400;2023-04-30T07:23:59;96677.00;;;12.49;99.63
28927;BME280;16038;47.692;9.400;2023-04-30T07:26:24;96677.78;;;13.05;96.28
28927;BME280;16038;47.692;9.400;2023-04-30T07:28:50;96682.03;;;12.91;97.62
28927;BME280;16038;47.692;9.400;2023-04-30T07:31:16;96689.03;;;13.44;95.26
28927;BME280;16038;47.692;9.400;2023-04-30T07:33:41;96689.13;;;12.96;93.02
28927;BME280;16038;47.692;9.400;2023-04-30T07:36:06;96688.78;;;13.71;92.45
28927;BME280;16038;47.692;9.400;2023-04-30T07:38:32;96695.50;;;13.88;89.00
28927;BME280;16038;47.692;9.400;2023-04-30T07:40:57;96689.53;;;13.64;87.71
28927;BME280;16038;47.692;9.400;2023-04-30T07:43:22;96689.22;;;13.10;90.54
28927;BME280;16038;47.692;9.400;2023-04-30T07:45:48;96699.53;;;13.24;90.09
28927;BME280;16038;47.692;9.400;2023-04-30T07:48:14;96698.75;;;14.40;87.62
28927;BME280;16038;47.692;9.400;2023-04-30T07:50:39;96696.00;;;13.27;90.69
28927;BME280;16038;47.692;9.400;2023-04-30T07:53:05;96700.94;;;13.00;92.39
28927;BME280;16038;47.692;9.400;2023-04-30T07:55:33;96686.09;;;13.15;90.32
28927;BME280;16038;47.692;9.400;2023-04-30T07:57:58;96695.13;;;13.89;88.28
28927;BME280;16038;47.692;9.400;2023-04-30T08:00:24;96694.47;;;14.43;84.60
28927;BME280;16038;47.692;9.400;2023-04-30T08:02:50;96686.22;;;14.68;83.49
28927;BME280;16038;47.692;9.400;2023-04-30T08:05:15;96679.91;;;14.67;80.21
28927;BME280;16038;47.692;9.400;2023-04-30T08:07:41;96679.31;;;13.72;85.75
28927;BME280;16038;47.692;9.400;2023-04-30T08:10:08;96681.50;;;14.86;78.34
28927;BME280;16038;47.692;9.400;2023-04-30T08:12:36;96669.97;;;15.38;76.00
28927;BME280;16038;47.692;9.400;2023-04-30T08:15:02;96675.00;;;15.65;77.09
28927;BME280;16038;47.692;9.400;2023-04-30T08:17:29;96664.25;;;16.52;69.32
28927;BME280;16038;47.692;9.400;2023-04-30T08:19:54;96670.69;;;18.01;63.51
28927;BME280;16038;47.692;9.400;2023-04-30T08:22:20;96668.06;;;16.69;66.38
28927;BME280;16038;47.692;9.400;2023-04-30T08:24:45;96656.91;;;15.49;72.76
28927;BME280;16038;47.692;9.400;2023-04-30T08:27:10;96662.97;;;14.69;79.37
28927;BME280;16038;47.692;9.400;2023-04-30T08:29:36;96670.47;;;14.65;75.55
28927;BME280;16038;47.692;9.400;2023-04-30T08:32:01;96664.88;;;14.14;82.76
28927;BME280;16038;47.692;9.400;2023-04-30T08:34:28;96660.19;;;14.26;82.78
28927;BME280;16038;47.692;9.400;2023-04-30T08:36:53;96659.44;;;14.90;79.39
28927;BME280;16038;47.692;9.400;2023-04-30T08:39:18;96653.72;;;15.58;76.37
28927;BME280;16038;47.692;9.400;2023-04-30T08:41:44;96659.19;;;16.43;70.49
28927;BME280;16038;47.692;9.400;2023-04-30T08:44:10;96662.63;;;15.98;71.58
28927;BME280;16038;47.692;9.400;2023-04-30T08:46:37;96661.88;;;15.94;73.17
28927;BME280;16038;47.692;9.400;2023-04-30T08:49:03;96666.81;;;16.80;67.11
28927;BME280;16038;47.692;9.400;2023-04-30T08:51:29;96676.13;;;18.08;61.39
28927;BME280;16038;47.692;9.400;2023-04-30T08:53:56;96672.13;;;16.57;68.53
28927;BME280;16038;47.692;9.400;2023-04-30T08:56:22;96670.97;;;17.75;61.47
28927;BME280;16038;47.692;9.400;2023-04-30T08:58:47;96667.78;;;17.05;64.42
28927;BME280;16038;47.692;9.400;2023-04-30T09:01:12;96668.69;;;17.32;64.81
28927;BME280;16038;47.692;9.400;2023-04-30T09:03:38;96673.59;;;17.90;63.24
28927;BME280;16038;47.692;9.400;2023-04-30T09:06:04;96668.09;;;16.65;67.09
28927;BME280;16038;47.692;9.400;2023-04-30T09:08:42;96654.16;;;16.83;62.28
28927;BME280;16038;47.692;9.400;2023-04-30T09:11:27;96670.25;;;15.76;70.59
28927;BME280;16038;47.692;9.400;2023-04-30T09:14:02;96678.97;;;17.32;61.42
28927;BME280;16038;47.692;9.400;2023-04-30T09:16:28;96652.78;;;17.02;63.54
28927;BME280;16038;47.692;9.400;2023-04-30T09:18:57;96669.09;;;17.31;60.84
28927;BME280;16038;47.692;9.400;2023-04-30T09:21:32;96663.50;;;17.00;63.76
28927;BME280;16038;47.692;9.400;2023-04-30T09:23:59;96667.78;;;17.43;61.41
28927;BME280;16038;47.692;9.400;2023-04-30T09:26:26;96678.44;;;17.44;61.95
28927;BME280;16038;47.692;9.400;2023-04-30T09:28:55;96674.84;;;16.04;66.17
28927;BME280;16038;47.692;9.400;2023-04-30T09:31:25;96671.72;;;17.07;65.28
28927;BME280;16038;47.692;9.400;2023-04-30T09:33:52;96675.41;;;18.00;61.56
28927;BME280;16038;47.692;9.400;2023-04-30T09:36:18;96675.16;;;17.56;59.82
28927;BME280;16038;47.692;9.400;2023-04-30T09:38:43;96673.28;;;16.59;65.27
28927;BME280;16038;47.692;9.400;2023-04-30T09:41:25;96667.75;;;16.03;66.46
28927;BME280;16038;47.692;9.400;2023-04-30T09:43:52;96663.59;;;15.63;67.29
28927;BME280;16038;47.692;9.400;2023-04-30T09:46:18;96658.72;;;15.92;65.82
28927;BME280;16038;47.692;9.400;2023-04-30T09:48:43;96656.91;;;15.53;66.53
28927;BME280;16038;47.692;9.400;2023-04-30T09:51:08;96658.97;;;15.20;69.43
28927;BME280;16038;47.692;9.400;2023-04-30T09:53:36;96659.78;;;15.10;68.77
28927;BME280;16038;47.692;9.400;2023-04-30T09:56:02;96661.81;;;14.81;69.84
28927;BME280;16038;47.692;9.400;2023-04-30T09:58:31;96670.06;;;14.81;69.85
28927;BME280;16038;47.692;9.400;2023-04-30T10:01:00;96659.72;;;15.32;69.86
28927;BME280;16038;47.692;9.400;2023-04-30T10:03:28;96655.03;;;15.18;67.74
28927;BME280;16038;47.692;9.400;2023-04-30T10:05:55;96665.31;;;14.96;69.31
28927;BME280;16038;47.692;9.400;2023-04-30T10:08:30;96662.97;;;14.69;71.10
28927;BME280;16038;47.692;9.400;2023-04-30T10:11:01;96665.72;;;16.08;67.72
28927;BME280;16038;47.692;9.400;2023-04-30T10:13:28;96654.66;;;15.01;69.42
28927;BME280;16038;47.692;9.400;2023-04-30T10:15:56;96665.50;;;15.73;67.81
28927;BME280;16038;47.692;9.400;2023-04-30T10:18:36;96662.34;;;15.78;66.90
28927;BME280;16038;47.692;9.400;2023-04-30T10:21:04;96651.41;;;15.46;67.37
28927;BME280;16038;47.692;9.400;2023-04-30T10:23:35;96661.97;;;15.76;67.48
28927;BME280;16038;47.692;9.400;2023-04-30T10:26:00;96655.41;;;16.71;64.91
28927;BME280;16038;47.692;9.400;2023-04-30T10:28:26;96649.97;;;16.04;65.71
28927;BME280;16038;47.692;9.400;2023-04-30T10:30:53;96644.09;;;16.55;62.27
28927;BME280;16038;47.692;9.400;2023-04-30T10:33:33;96643.84;;;15.61;63.47
28927;BME280;16038;47.692;9.400;2023-04-30T10:36:05;96643.28;;;15.98;66.09
28927;BME280;16038;47.692;9.400;2023-04-30T10:38:32;96644.63;;;16.88;61.29
28927;BME280;16038;47.692;9.400;2023-04-30T10:40:58;96631.09;;;16.97;63.09
28927;BME280;16038;47.692;9.400;2023-04-30T10:43:25;96633.69;;;16.21;63.15
28927;BME280;16038;47.692;9.400;2023-04-30T10:45:51;96637.66;;;16.69;62.88
28927;BME280;16038;47.692;9.400;2023-04-30T10:48:17;96629.38;;;16.16;63.63
28927;BME280;16038;47.692;9.400;2023-04-30T10:50:50;96625.50;;;16.07;63.63
28927;BME280;16038;47.692;9.400;2023-04-30T10:53:17;96620.47;;;15.91;63.66
28927;BME280;16038;47.692;9.400;2023-04-30T10:56:02;96624.22;;;16.18;62.20
28927;BME280;16038;47.692;9.400;2023-04-30T11:01:08;96620.97;;;16.31;61.44
28927;BME280;16038;47.692;9.400;2023-04-30T11:03:34;96627.16;;;16.46;62.38
28927;BME280;16038;47.692;9.400;2023-04-30T11:06:00;96615.28;;;16.00;64.74
28927;BME280;16038;47.692;9.400;2023-04-30T11:08:32;96616.19;;;16.35;67.22
28927;BME280;16038;47.692;9.400;2023-04-30T11:10:58;96608.81;;;16.21;62.93
28927;BME280;16038;47.692;9.400;2023-04-30T11:13:25;96600.34;;;15.94;63.91
28927;BME280;16038;47.692;9.400;2023-04-30T11:15:50;96608.16;;;15.99;63.74
28927;BME280;16038;47.692;9.400;2023-04-30T11:18:16;96610.47;;;16.60;62.82
28927;BME280;16038;47.692;9.400;2023-04-30T11:20:48;96606.28;;;16.90;63.19
28927;BME280;16038;47.692;9.400;2023-04-30T11:23:14;96607.00;;;16.52;62.56
28927;BME280;16038;47.692;9.400;2023-04-30T11:25:41;96605.19;;;16.28;63.63
28927;BME280;16038;47.692;9.400;2023-04-30T11:28:10;96615.59;;;16.13;62.88
28927;BME280;16038;47.692;9.400;2023-04-30T11:30:37;96603.38;;;16.10;63.13
28927;BME280;16038;47.692;9.400;2023-04-30T11:33:03;96593.84;;;16.15;64.01
28927;BME280;16038;47.692;9.400;2023-04-30T11:35:29;96593.53;;;17.34;60.92
28927;BME280;16038;47.692;9.400;2023-04-30T11:37:54;96595.66;;;17.23;62.29
28927;BME280;16038;47.692;9.400;2023-04-30T11:40:20;96589.28;;;16.91;60.84
28927;BME280;16038;47.692;9.400;2023-04-30T11:42:46;96590.00;;;16.05;63.49
28927;BME280;16038;47.692;9.400;2023-04-30T11:45:15;96598.50;;;16.74;62.41
28927;BME280;16038;47.692;9.400;2023-04-30T11:50:07;96590.84;;;17.27;59.77
28927;BME280;16038;47.692;9.400;2023-04-30T11:52:33;96580.34;;;17.14;60.71
28927;BME280;16038;47.692;9.400;2023-04-30T11:54:58;96577.38;;;16.00;62.46
28927;BME280;16038;47.692;9.400;2023-04-30T11:57:24;96580.19;;;16.46;64.52
28927;BME280;16038;47.692;9.400;2023-04-30T11:59:50;96584.19;;;16.86;62.55
28927;BME280;16038;47.692;9.400;2023-04-30T12:02:15;96577.13;;;17.50;59.82
28927;BME280;16038;47.692;9.400;2023-04-30T12:04:42;96580.94;;;16.95;60.50
28927;BME280;16038;47.692;9.400;2023-04-30T12:07:07;96578.47;;;16.62;62.07
28927;BME280;16038;47.692;9.400;2023-04-30T12:09:50;96560.72;;;16.11;62.36
28927;BME280;16038;47.692;9.400;2023-04-30T12:12:24;96569.06;;;16.04;64.71
28927;BME280;16038;47.692;9.400;2023-04-30T12:14:50;96572.88;;;16.70;62.72
28927;BME280;16038;47.692;9.400;2023-04-30T12:17:29;96574.09;;;16.65;61.24
28927;BME280;16038;47.692;9.400;2023-04-30T12:19:54;96567.00;;;17.06;58.47
28927;BME280;16038;47.692;9.400;2023-04-30T12:22:19;96571.06;;;17.28;59.09
28927;BME280;16038;47.692;9.400;2023-04-30T12:24:45;96572.28;;;16.93;59.71
28927;BME280;16038;47.692;9.400;2023-04-30T12:27:11;96558.88;;;16.88;60.88
28927;BME280;16038;47.692;9.400;2023-04-30T12:29:39;96566.06;;;17.16;58.50
28927;BME280;16038;47.692;9.400;2023-04-30T12:32:04;96541.81;;;16.96;58.00
28927;BME280;16038;47.692;9.400;2023-04-30T12:34:30;96548.28;;;17.17;59.48
28927;BME280;16038;47.692;9.400;2023-04-30T12:36:56;96552.31;;;16.71;58.00
28927;BME280;16038;47.692;9.400;2023-04-30T12:39:22;96551.75;;;16.45;57.82
28927;BME280;16038;47.692;9.400;2023-04-30T12:41:47;96558.34;;;16.62;58.71
28927;BME280;16038;47.692;9.400;2023-04-30T12:44:23;96555.50;;;17.07;60.35
28927;BME280;16038;47.692;9.400;2023-04-30T12:46:49;96547.59;;;17.40;57.29
28927;BME280;16038;47.692;9.400;2023-04-30T12:49:25;96555.97;;;17.94;56.60
28927;BME280;16038;47.692;9.400;2023-04-30T12:51:50;96562.97;;;18.03;56.33
28927;BME280;16038;47.692;9.400;2023-04-30T12:54:29;96558.72;;;17.36;59.88
28927;BME280;16038;47.692;9.400;2023-04-30T12:56:58;96548.69;;;17.15;60.05
28927;BME280;16038;47.692;9.400;2023-04-30T12:59:25;96549.81;;;17.52;58.56
28927;BME280;16038;47.692;9.400;2023-04-30T13:01:51;96533.59;;;16.89;58.78
28927;BME280;16038;47.692;9.400;2023-04-30T13:04:17;96506.47;;;16.73;58.39
28927;BME280;16038;47.692;9.400;2023-04-30T13:06:42;96530.81;;;16.48;61.75
28927;BME280;16038;47.692;9.400;2023-04-30T13:09:08;96533.84;;;17.02;61.14
28927;BME280;16038;47.692;9.400;2023-04-30T13:11:33;96531.97;;;16.50;61.07
28927;BME280;16038;47.692;9.400;2023-04-30T13:13:59;96535.22;;;16.83;62.28